Time;durP1;ratioP1;P1;durP2;ratioP2;P2;SDS_P1;SDS_P2;PMS_P1;PMS_P2;Temp;Humidity;BMP_temperature;BMP_pressure;BME280_temperature;BME280_humidity;BME280_pressure;Samples;Min_cycle;Max_cycle;Signal;HPM_P1;HPM_P2
2021/11/25 00:02:13;;;;;;;5.30;3.30;;;11.50;79.20;;;;;;5114835;28;20035;-61
2021/11/25 00:04:38;;;;;;;5.63;3.53;;;11.50;79.20;;;;;;5121227;27;20042;-62
2021/11/25 00:07:04;;;;;;;4.72;2.90;;;11.50;79.20;;;;;;5133579;27;20101;-60
2021/11/25 00:09:30;;;;;;;4.43;3.22;;;11.50;79.20;;;;;;5129700;27;20040;-63
2021/11/25 00:11:56;;;;;;;4.50;3.22;;;11.50;79.20;;;;;;5114595;28;20130;-63
2021/11/25 00:14:22;;;;;;;3.70;2.70;;;11.50;79.20;;;;;;5118355;27;20126;-63
2021/11/25 00:16:48;;;;;;;4.05;2.88;;;11.50;79.20;;;;;;5132302;27;20059;-63
2021/11/25 00:19:14;;;;;;;4.22;3.17;;;11.50;79.20;;;;;;5131449;27;20036;-63
2021/11/25 00:21:39;;;;;;;4.90;3.65;;;11.50;79.20;;;;;;5113647;28;20039;-61
2021/11/25 00:24:06;;;;;;;3.90;2.72;;;11.50;79.20;;;;;;5120283;27;20047;-62
2021/11/25 00:26:33;;;;;;;4.97;3.10;;;11.50;79.20;;;;;;5115710;27;20126;-62
2021/11/25 00:28:59;;;;;;;4.78;3.70;;;11.50;79.20;;;;;;5097327;27;20086;-62
2021/11/25 00:31:25;;;;;;;4.93;3.38;;;11.50;79.20;;;;;;5115733;27;20031;-63
2021/11/25 00:33:51;;;;;;;5.40;3.45;;;11.50;79.20;;;;;;5132516;27;20570;-61
2021/11/25 00:36:17;;;;;;;5.13;3.60;;;11.50;79.20;;;;;;5104490;27;20058;-63
2021/11/25 00:38:42;;;;;;;5.32;3.35;;;11.50;79.20;;;;;;5132201;27;20031;-61
2021/11/25 00:41:08;;;;;;;5.82;3.67;;;11.50;79.30;;;;;;5134003;27;20372;-61
2021/11/25 00:43:34;;;;;;;5.45;3.67;;;11.50;79.20;;;;;;5133931;27;20088;-63
2021/11/25 00:45:59;;;;;;;5.13;3.63;;;11.50;79.30;;;;;;5120140;27;20070;-62
2021/11/25 00:48:25;;;;;;;5.63;4.30;;;11.50;79.20;;;;;;5114347;27;20472;-61
2021/11/25 00:50:51;;;;;;;5.72;4.13;;;11.50;79.20;;;;;;5113518;28;20155;-62
2021/11/25 00:53:17;;;;;;;4.30;3.53;;;11.50;79.20;;;;;;5113537;28;20578;-57
2021/11/25 00:55:43;;;;;;;4.95;3.70;;;11.60;79.30;;;;;;5121792;27;20592;-62
2021/11/25 00:58:09;;;;;;;4.45;3.60;;;11.50;79.20;;;;;;5113513;28;20039;-62
2021/11/25 01:00:35;;;;;;;5.20;3.85;;;11.50;79.20;;;;;;5114400;27;20043;-62
2021/11/25 01:03:01;;;;;;;4.97;3.60;;;11.50;79.30;;;;;;5113383;28;20039;-61
2021/11/25 01:05:26;;;;;;;6.32;4.10;;;11.50;79.30;;;;;;5109049;27;20047;-63
2021/11/25 01:07:52;;;;;;;5.70;4.20;;;11.50;79.20;;;;;;5120717;27;20047;-62
2021/11/25 01:10:23;;;;;;;6.40;4.07;;;11.50;79.20;;;;;;5131940;27;20084;-63
2021/11/25 01:12:51;;;;;;;4.68;3.70;;;11.50;79.20;;;;;;5125774;27;20093;-63
2021/11/25 01:15:18;;;;;;;5.10;3.78;;;11.50;79.20;;;;;;5124883;27;20114;-62
2021/11/25 01:17:45;;;;;;;7.28;4.60;;;11.50;79.30;;;;;;5133843;27;20092;-62
2021/11/25 01:20:17;;;;;;;5.35;3.72;;;11.50;79.30;;;;;;5131360;27;20073;-62
2021/11/25 01:22:43;;;;;;;5.90;3.95;;;11.50;79.30;;;;;;5114619;27;20058;-59
2021/11/25 01:25:09;;;;;;;5.28;4.15;;;11.50;79.30;;;;;;5124229;27;20043;-62
2021/11/25 01:27:35;;;;;;;5.68;3.78;;;11.50;79.30;;;;;;5133694;27;20172;-62
2021/11/25 01:30:02;;;;;;;5.47;3.70;;;11.50;79.30;;;;;;5123341;27;20032;-63
2021/11/25 01:32:28;;;;;;;4.93;4.03;;;11.50;79.30;;;;;;5113179;27;20364;-61
2021/11/25 01:34:55;;;;;;;5.63;3.88;;;11.50;79.30;;;;;;5113588;28;20051;-63
2021/11/25 01:37:23;;;;;;;5.63;4.25;;;11.50;79.30;;;;;;5112872;28;20147;-61
2021/11/25 01:39:49;;;;;;;5.18;3.80;;;11.50;79.30;;;;;;5126470;27;20082;-62
2021/11/25 01:42:15;;;;;;;4.88;3.80;;;11.50;79.30;;;;;;5131882;27;20453;-62
2021/11/25 01:44:40;;;;;;;5.78;4.55;;;11.50;79.30;;;;;;5133109;27;20041;-62
2021/11/25 01:47:06;;;;;;;6.20;4.22;;;11.50;79.30;;;;;;5124365;27;20050;-59
2021/11/25 01:49:32;;;;;;;7.63;4.63;;;11.50;79.90;;;;;;5118279;28;20114;-62
2021/11/25 01:51:58;;;;;;;7.55;4.05;;;11.50;79.30;;;;;;5131155;28;20043;-60
2021/11/25 01:54:24;;;;;;;5.03;4.07;;;11.50;79.30;;;;;;5105612;28;20407;-61
2021/11/25 01:56:51;;;;;;;6.65;4.63;;;11.50;79.30;;;;;;5126588;28;20042;-62
2021/11/25 01:59:16;;;;;;;5.97;4.20;;;11.50;79.30;;;;;;5097728;28;20485;-61
2021/11/25 02:01:43;;;;;;;5.70;4.30;;;11.50;79.30;;;;;;5133239;28;20122;-61
2021/11/25 02:04:09;;;;;;;7.50;4.72;;;11.50;79.30;;;;;;5120899;28;20058;-61
2021/11/25 02:06:35;;;;;;;6.65;4.95;;;11.50;79.30;;;;;;5112949;28;20032;-63
2021/11/25 02:09:01;;;;;;;6.18;4.20;;;11.50;79.30;;;;;;5112545;28;20092;-61
2021/11/25 02:11:28;;;;;;;6.10;4.03;;;11.50;79.30;;;;;;5114552;28;20055;-61
2021/11/25 02:13:54;;;;;;;6.85;4.65;;;11.50;79.30;;;;;;5131187;28;20043;-61
2021/11/25 02:16:20;;;;;;;5.57;3.83;;;11.50;79.30;;;;;;5115951;28;20039;-60
2021/11/25 02:18:46;;;;;;;5.82;4.50;;;11.50;79.40;;;;;;5112683;28;20079;-61
2021/11/25 02:21:12;;;;;;;6.40;4.70;;;11.50;79.40;;;;;;5112352;28;20055;-61
2021/11/25 02:23:38;;;;;;;6.07;4.38;;;11.50;79.30;;;;;;5113962;28;20059;-59
2021/11/25 02:26:04;;;;;;;5.85;4.57;;;11.50;80.00;;;;;;5112395;28;20055;-61
2021/11/25 02:28:36;;;;;;;6.32;4.45;;;11.50;79.30;;;;;;5112290;28;20047;-61
2021/11/25 02:31:02;;;;;;;6.22;4.53;;;11.50;79.30;;;;;;5130324;28;20547;-61
2021/11/25 02:33:28;;;;;;;6.15;4.82;;;11.60;79.40;;;;;;5112910;28;20061;-62
2021/11/25 02:35:54;;;;;;;6.28;4.38;;;11.50;79.40;;;;;;5113491;28;20111;-63
2021/11/25 02:38:19;;;;;;;6.28;4.60;;;11.50;79.30;;;;;;5121773;28;20039;-62
2021/11/25 02:40:51;;;;;;;6.07;4.40;;;11.50;79.40;;;;;;5132371;28;20434;-62
2021/11/25 02:43:20;;;;;;;6.40;4.32;;;11.50;79.30;;;;;;5131851;27;20092;-62
2021/11/25 02:45:57;;;;;;;6.82;4.85;;;11.50;79.30;;;;;;5126097;27;20039;-63
2021/11/25 02:48:26;;;;;;;7.85;5.32;;;11.50;79.40;;;;;;5128372;27;20046;-62
2021/11/25 02:50:54;;;;;;;7.22;4.72;;;11.50;79.30;;;;;;5136539;27;20039;-62
2021/11/25 02:53:22;;;;;;;6.68;4.88;;;11.50;79.40;;;;;;5134006;27;20137;-59
2021/11/25 02:55:48;;;;;;;7.75;5.35;;;11.50;79.40;;;;;;5116671;27;20091;-62
2021/11/25 02:58:14;;;;;;;7.85;5.43;;;11.50;79.30;;;;;;5097317;28;20074;-61
2021/11/25 03:00:44;;;;;;;6.05;4.50;;;11.50;79.30;;;;;;5100595;27;20062;-62
2021/11/25 03:03:12;;;;;;;8.35;5.05;;;11.50;79.30;;;;;;5135920;27;20035;-59
2021/11/25 03:05:43;;;;;;;6.72;4.82;;;11.50;79.30;;;;;;5136370;27;20066;-61
2021/11/25 03:08:11;;;;;;;7.47;5.03;;;11.50;79.40;;;;;;5130104;27;20107;-62
2021/11/25 03:10:39;;;;;;;7.55;5.32;;;11.50;79.40;;;;;;5115475;28;20038;-61
2021/11/25 03:13:07;;;;;;;7.50;4.60;;;11.50;79.40;;;;;;5115210;28;20487;-60
2021/11/25 03:15:34;;;;;;;6.72;5.22;;;11.50;79.40;;;;;;5124695;27;20048;-62
2021/11/25 03:18:00;;;;;;;7.40;4.53;;;11.50;79.30;;;;;;5116483;27;20048;-62
2021/11/25 03:20:26;;;;;;;7.40;5.20;;;11.50;79.40;;;;;;5115572;28;20035;-63
2021/11/25 03:22:52;;;;;;;7.20;4.97;;;11.50;80.00;;;;;;5127674;27;20394;-62
2021/11/25 03:25:18;;;;;;;7.10;4.60;;;11.50;79.30;;;;;;5124042;27;20139;-62
2021/11/25 03:27:45;;;;;;;7.72;5.10;;;11.50;79.40;;;;;;5097776;28;20104;-60
2021/11/25 03:30:11;;;;;;;6.50;4.68;;;11.50;79.30;;;;;;5096754;28;20082;-62
2021/11/25 03:32:36;;;;;;;7.78;5.03;;;11.40;79.30;;;;;;5127159;27;20147;-62
2021/11/25 03:35:03;;;;;;;6.70;5.03;;;11.50;79.40;;;;;;5135249;27;20479;-62
2021/11/25 03:37:28;;;;;;;6.80;5.18;;;11.50;79.40;;;;;;5135822;27;20046;-63
2021/11/25 03:39:54;;;;;;;7.78;5.15;;;11.50;79.40;;;;;;5096414;28;20134;-63
2021/11/25 03:42:21;;;;;;;8.35;5.57;;;11.50;79.40;;;;;;5115937;27;20046;-61
2021/11/25 03:44:46;;;;;;;7.85;5.03;;;11.50;79.40;;;;;;5114748;27;20097;-61
2021/11/25 03:47:13;;;;;;;7.28;5.28;;;11.50;79.40;;;;;;5114844;28;20047;-62
2021/11/25 03:49:40;;;;;;;7.70;5.35;;;11.50;79.40;;;;;;5116089;27;20091;-62
2021/11/25 03:52:06;;;;;;;7.13;4.88;;;11.50;79.40;;;;;;5114980;28;20036;-62
2021/11/25 03:54:31;;;;;;;8.77;5.70;;;11.40;79.30;;;;;;5125602;27;20181;-61
2021/11/25 03:56:57;;;;;;;8.10;5.25;;;11.40;79.30;;;;;;5134274;27;20043;-62
2021/11/25 03:59:23;;;;;;;8.10;5.40;;;11.50;79.40;;;;;;5132994;27;20035;-61
2021/11/25 04:01:49;;;;;;;6.95;4.85;;;11.40;79.30;;;;;;5134872;27;20146;-62
2021/11/25 04:04:15;;;;;;;6.88;4.45;;;11.50;79.40;;;;;;5122386;27;20039;-62
2021/11/25 04:06:41;;;;;;;7.15;4.85;;;11.40;79.30;;;;;;5125730;27;20145;-59
2021/11/25 04:09:06;;;;;;;9.48;5.63;;;11.40;79.30;;;;;;5135363;27;20122;-61
2021/11/25 04:11:32;;;;;;;6.35;4.72;;;11.40;79.30;;;;;;5133620;27;20043;-62
2021/11/25 04:14:02;;;;;;;7.43;5.50;;;11.40;79.30;;;;;;5135132;27;20081;-62
2021/11/25 04:16:27;;;;;;;7.47;5.07;;;11.50;79.40;;;;;;5123569;27;20047;-61
2021/11/25 04:18:53;;;;;;;8.15;5.60;;;11.40;79.30;;;;;;5135103;27;20498;-61
2021/11/25 04:21:19;;;;;;;7.32;5.28;;;11.40;79.30;;;;;;5133112;27;20475;-59
2021/11/25 04:23:45;;;;;;;8.10;5.60;;;11.50;79.40;;;;;;5134693;27;20058;-60
2021/11/25 04:26:10;;;;;;;8.60;5.78;;;11.40;79.30;;;;;;5114482;27;20073;-60
2021/11/25 04:28:36;;;;;;;7.90;5.75;;;11.50;79.40;;;;;;5114048;28;20055;-59
2021/11/25 04:36:32;;;;;;;8.20;5.13;;;11.50;79.40;;;;;;5114034;28;20108;-61
2021/11/25 04:38:57;;;;;;;7.22;5.35;;;11.40;79.40;;;;;;5118878;27;20047;-60
2021/11/25 04:41:26;;;;;;;7.57;5.10;;;11.40;79.30;;;;;;5132373;27;20034;-56
2021/11/25 04:43:52;;;;;;;8.07;5.22;;;11.40;79.30;;;;;;5113772;28;20039;-58
2021/11/25 04:46:17;;;;;;;9.73;5.95;;;11.50;79.50;;;;;;5113191;28;20058;-62
2021/11/25 04:48:43;;;;;;;9.13;5.72;;;11.50;79.40;;;;;;5113827;28;20126;-61
2021/11/25 04:51:09;;;;;;;7.22;5.05;;;11.40;79.40;;;;;;5132894;27;20043;-62
2021/11/25 04:53:35;;;;;;;7.55;5.45;;;11.40;79.40;;;;;;5132644;27;20035;-61
2021/11/25 04:56:01;;;;;;;7.28;4.95;;;11.50;79.40;;;;;;5124930;27;20148;-62
2021/11/25 04:58:27;;;;;;;8.85;5.60;;;11.40;79.40;;;;;;5133940;27;20456;-63
2021/11/25 05:00:52;;;;;;;7.28;5.32;;;11.40;79.40;;;;;;5129716;27;20035;-61
2021/11/25 05:03:18;;;;;;;9.88;6.30;;;11.50;79.40;;;;;;5114254;27;20035;-62
2021/11/25 05:05:44;;;;;;;8.60;5.82;;;11.40;79.40;;;;;;5113258;28;20539;-62
2021/11/25 05:08:10;;;;;;;8.82;5.75;;;11.50;79.40;;;;;;5094789;28;20045;-61
2021/11/25 05:10:37;;;;;;;8.18;5.43;;;11.50;79.50;;;;;;5113134;27;20047;-61
2021/11/25 05:13:03;;;;;;;8.68;5.80;;;11.40;79.40;;;;;;5123072;27;20035;-60
2021/11/25 05:15:29;;;;;;;8.48;5.53;;;11.50;79.50;;;;;;5097666;28;20134;-61
2021/11/25 05:17:55;;;;;;;7.82;5.55;;;11.40;79.40;;;;;;5127152;27;20118;-59
2021/11/25 05:20:20;;;;;;;8.93;5.78;;;11.40;79.40;;;;;;5132959;27;20170;-60
2021/11/25 05:22:47;;;;;;;8.55;6.20;;;11.40;79.40;;;;;;5133637;27;20400;-63
2021/11/25 05:25:15;;;;;;;8.30;5.60;;;11.40;79.40;;;;;;5128071;27;20054;-62
2021/11/25 05:27:41;;;;;;;9.02;6.13;;;11.40;79.40;;;;;;5128477;27;20092;-63
2021/11/25 05:30:09;;;;;;;9.38;6.00;;;11.40;79.40;;;;;;5133316;27;20043;-62
2021/11/25 05:32:35;;;;;;;9.32;6.90;;;11.40;79.40;;;;;;5118252;27;20807;-62
2021/11/25 05:35:00;;;;;;;9.57;6.75;;;11.40;79.40;;;;;;5123339;27;20071;-62
2021/11/25 05:37:26;;;;;;;8.23;6.18;;;11.40;79.40;;;;;;5133701;27;20077;-61
2021/11/25 05:39:52;;;;;;;8.77;6.05;;;11.40;79.40;;;;;;5124267;27;20138;-61
2021/11/25 05:42:19;;;;;;;8.77;5.65;;;11.40;79.40;;;;;;5112831;28;20546;-62
2021/11/25 05:44:45;;;;;;;10.00;6.38;;;11.40;79.40;;;;;;5128649;27;20089;-62
2021/11/25 05:47:11;;;;;;;9.90;6.80;;;11.40;79.40;;;;;;5114286;27;20766;-62
2021/11/25 05:49:37;;;;;;;10.43;7.03;;;11.40;79.50;;;;;;5114688;28;20039;-61
2021/11/25 05:52:03;;;;;;;8.90;5.88;;;11.40;79.40;;;;;;5132844;28;20039;-63
2021/11/25 05:54:28;;;;;;;9.05;6.38;;;11.40;79.40;;;;;;5133018;28;20035;-60
2021/11/25 05:56:54;;;;;;;8.45;5.88;;;11.40;79.40;;;;;;5095921;28;20043;-61
2021/11/25 05:59:20;;;;;;;9.45;6.30;;;11.40;79.40;;;;;;5097184;28;20078;-58
2021/11/25 06:01:46;;;;;;;9.05;6.00;;;11.40;79.50;;;;;;5114783;28;20050;-60
2021/11/25 06:04:12;;;;;;;9.13;6.40;;;11.40;79.50;;;;;;5105537;28;20388;-61
2021/11/25 06:06:38;;;;;;;9.63;6.38;;;11.40;79.50;;;;;;5112863;28;20050;-57
2021/11/25 06:09:04;;;;;;;9.18;6.10;;;11.40;79.50;;;;;;5113666;28;20040;-60
2021/11/25 06:11:30;;;;;;;9.85;6.97;;;11.40;79.40;;;;;;5112834;28;20525;-62
2021/11/25 06:13:55;;;;;;;9.15;6.38;;;11.40;79.50;;;;;;5112741;28;20075;-62
2021/11/25 06:16:21;;;;;;;10.80;6.35;;;11.40;79.50;;;;;;5112580;28;20037;-58
2021/11/25 06:18:47;;;;;;;10.18;6.80;;;11.40;79.50;;;;;;5115391;28;20648;-58
2021/11/25 06:21:13;;;;;;;11.38;6.90;;;11.40;79.50;;;;;;5116889;28;20071;-58
2021/11/25 06:23:40;;;;;;;11.35;6.78;;;11.40;79.50;;;;;;5134403;27;20047;-60
2021/11/25 06:26:07;;;;;;;10.90;7.25;;;11.40;79.40;;;;;;5117529;27;20039;-57
2021/11/25 06:28:32;;;;;;;10.00;6.93;;;11.40;79.50;;;;;;5117536;27;20050;-58
2021/11/25 06:30:58;;;;;;;10.55;6.88;;;11.50;79.60;;;;;;5134185;27;20047;-61
2021/11/25 06:33:24;;;;;;;9.65;7.00;;;11.40;79.50;;;;;;5135698;27;20169;-57
2021/11/25 06:35:51;;;;;;;9.27;6.50;;;11.40;79.50;;;;;;5116093;28;20047;-58
2021/11/25 06:38:19;;;;;;;10.85;7.00;;;11.40;79.50;;;;;;5126856;27;20260;-61
2021/11/25 06:40:46;;;;;;;10.48;7.05;;;11.40;79.50;;;;;;5136792;27;20051;-59
2021/11/25 06:43:12;;;;;;;11.02;7.15;;;11.50;79.50;;;;;;5116669;27;20483;-61
2021/11/25 06:45:38;;;;;;;11.27;7.28;;;11.40;79.50;;;;;;5126569;27;20410;-59
2021/11/25 06:48:06;;;;;;;9.98;6.55;;;11.40;79.50;;;;;;5106499;28;20062;-60
2021/11/25 06:50:31;;;;;;;11.88;7.47;;;11.50;79.60;;;;;;5098929;28;20368;-57
2021/11/25 06:52:57;;;;;;;10.00;6.35;;;11.40;79.50;;;;;;5115802;28;20043;-58
2021/11/25 06:55:24;;;;;;;11.82;7.40;;;11.40;79.50;;;;;;5115626;28;20035;-59
2021/11/25 06:57:51;;;;;;;11.93;7.53;;;11.40;79.50;;;;;;5124209;27;20036;-56
2021/11/25 07:00:21;;;;;;;11.02;7.43;;;11.40;79.50;;;;;;5117153;27;20067;-61
2021/11/25 07:02:47;;;;;;;12.07;7.63;;;11.40;79.50;;;;;;5119384;27;20039;-62
2021/11/25 07:05:13;;;;;;;12.93;7.72;;;11.40;79.50;;;;;;5124164;27;20035;-62
2021/11/25 07:07:40;;;;;;;10.20;7.45;;;11.40;79.50;;;;;;5097252;28;20052;-61
2021/11/25 07:10:08;;;;;;;9.85;6.70;;;11.40;79.50;;;;;;5102824;27;20427;-62
2021/11/25 07:12:35;;;;;;;10.40;7.35;;;11.40;79.50;;;;;;5135819;27;20065;-62
2021/11/25 07:15:03;;;;;;;10.38;7.22;;;11.40;79.50;;;;;;5135706;27;20122;-60
2021/11/25 07:17:28;;;;;;;10.90;7.38;;;11.40;79.50;;;;;;5135478;27;20092;-57
2021/11/25 07:19:54;;;;;;;15.18;8.52;;;11.40;79.50;;;;;;5134737;27;20035;-57
2021/11/25 07:22:20;;;;;;;10.50;7.28;;;11.40;79.50;;;;;;5133299;27;20146;-62
2021/11/25 07:24:46;;;;;;;13.02;8.20;;;11.40;79.50;;;;;;5108553;28;20135;-62
2021/11/25 07:27:12;;;;;;;13.82;7.82;;;11.40;79.50;;;;;;5122173;27;20432;-59
2021/11/25 07:29:38;;;;;;;12.10;7.45;;;11.30;79.50;;;;;;5120718;27;20054;-63
2021/11/25 07:32:04;;;;;;;12.02;7.45;;;11.40;79.50;;;;;;5131826;27;20406;-62
2021/11/25 07:34:31;;;;;;;12.63;8.07;;;11.40;79.50;;;;;;5122226;27;20055;-60
2021/11/25 07:36:57;;;;;;;11.55;7.55;;;11.40;79.50;;;;;;5096368;28;20043;-61
2021/11/25 07:39:23;;;;;;;14.57;7.80;;;11.40;79.50;;;;;;5130587;27;20538;-62
2021/11/25 07:41:49;;;;;;;12.77;7.63;;;11.40;79.50;;;;;;5115917;27;20035;-62
2021/11/25 07:44:14;;;;;;;11.20;6.88;;;11.40;79.50;;;;;;5114646;27;20119;-60
2021/11/25 07:46:40;;;;;;;10.32;6.95;;;11.40;79.60;;;;;;5114631;28;20480;-60
2021/11/25 07:49:06;;;;;;;12.57;7.70;;;11.40;79.50;;;;;;5114561;28;20502;-60
2021/11/25 07:51:32;;;;;;;14.10;8.52;;;11.40;79.50;;;;;;5114494;28;20036;-61
2021/11/25 07:54:01;;;;;;;12.65;7.95;;;11.40;79.50;;;;;;5116322;27;20118;-60
2021/11/25 07:56:27;;;;;;;11.95;7.70;;;11.30;79.50;;;;;;5112480;28;20040;-61
2021/11/25 07:58:52;;;;;;;10.85;7.40;;;11.40;79.50;;;;;;5129597;27;20047;-61
2021/11/25 08:01:18;;;;;;;9.90;7.10;;;11.30;79.50;;;;;;5134975;27;20042;-60
2021/11/25 08:03:44;;;;;;;11.85;7.38;;;11.40;79.50;;;;;;5133410;27;20043;-60
2021/11/25 08:06:10;;;;;;;12.68;7.80;;;11.40;79.50;;;;;;5114620;27;20048;-61
2021/11/25 08:08:36;;;;;;;11.18;8.00;;;11.40;79.50;;;;;;5114358;28;20047;-61
2021/11/25 08:11:03;;;;;;;11.23;7.90;;;11.40;79.50;;;;;;5115848;27;20038;-59
2021/11/25 08:13:31;;;;;;;13.77;8.23;;;11.40;79.50;;;;;;5115211;27;20452;-61
2021/11/25 08:15:57;;;;;;;13.48;8.35;;;11.40;79.50;;;;;;5114367;28;20086;-61
2021/11/25 08:18:23;;;;;;;12.57;8.40;;;11.30;79.50;;;;;;5114509;28;20032;-59
2021/11/25 08:20:48;;;;;;;10.60;7.65;;;11.40;79.60;;;;;;5114194;27;20141;-62
2021/11/25 08:23:15;;;;;;;12.95;7.65;;;11.40;79.60;;;;;;5114691;28;20070;-61
2021/11/25 08:25:41;;;;;;;13.00;8.50;;;11.40;79.50;;;;;;5115467;27;20060;-61
2021/11/25 08:28:07;;;;;;;13.52;7.97;;;11.40;79.50;;;;;;5124839;27;20046;-58
2021/11/25 08:30:33;;;;;;;12.95;8.40;;;11.40;79.50;;;;;;5119688;27;20057;-62
2021/11/25 08:32:59;;;;;;;11.70;7.88;;;11.40;79.60;;;;;;5115659;27;20047;-61
2021/11/25 08:35:25;;;;;;;12.77;7.90;;;11.40;80.20;;;;;;5132890;27;20039;-61
2021/11/25 08:37:51;;;;;;;11.02;7.03;;;11.40;79.50;;;;;;5134371;27;20043;-62
2021/11/25 08:40:17;;;;;;;13.05;8.02;;;11.30;79.50;;;;;;5122021;27;20491;-60
2021/11/25 08:42:45;;;;;;;12.80;8.48;;;11.40;79.60;;;;;;5113507;28;20043;-62
2021/11/25 08:45:13;;;;;;;13.95;8.63;;;11.40;79.50;;;;;;5123194;27;20421;-61
2021/11/25 08:47:38;;;;;;;14.95;8.35;;;11.40;79.50;;;;;;5134018;27;20071;-58
2021/11/25 08:50:06;;;;;;;12.02;7.95;;;11.50;79.60;;;;;;5123600;27;20155;-58
2021/11/25 08:52:32;;;;;;;12.05;7.63;;;11.40;79.50;;;;;;5120077;27;20126;-58
2021/11/25 08:54:58;;;;;;;11.32;7.85;;;11.40;79.50;;;;;;5133673;27;20462;-62
2021/11/25 08:57:23;;;;;;;12.93;8.27;;;11.40;79.60;;;;;;5131821;27;20376;-56
2021/11/25 08:59:49;;;;;;;11.75;7.88;;;11.40;79.60;;;;;;5133511;27;20031;-61
2021/11/25 09:02:15;;;;;;;11.15;7.47;;;11.40;79.60;;;;;;5133453;27;20035;-62
2021/11/25 09:04:40;;;;;;;10.02;6.80;;;11.50;79.60;;;;;;5114963;27;20089;-58
2021/11/25 09:07:06;;;;;;;11.80;8.18;;;11.40;79.60;;;;;;5113351;27;20047;-56
2021/11/25 09:09:32;;;;;;;11.63;7.47;;;11.40;79.60;;;;;;5122660;27;20368;-56
2021/11/25 09:11:58;;;;;;;11.77;7.72;;;11.40;79.60;;;;;;5113393;28;20044;-60
2021/11/25 09:14:23;;;;;;;10.90;7.50;;;11.40;79.60;;;;;;5112834;28;20335;-64
2021/11/25 09:16:50;;;;;;;10.88;7.65;;;11.40;79.60;;;;;;5113578;28;20041;-64
2021/11/25 09:19:16;;;;;;;11.27;7.75;;;11.40;79.60;;;;;;5112559;28;20040;-64
2021/11/25 09:21:42;;;;;;;11.48;7.75;;;11.40;79.50;;;;;;5124173;27;20066;-64
2021/11/25 09:24:08;;;;;;;11.02;7.38;;;11.50;79.60;;;;;;5132724;27;20055;-64
2021/11/25 09:26:35;;;;;;;12.82;7.43;;;11.40;79.60;;;;;;5124590;27;20058;-64
2021/11/25 09:29:02;;;;;;;10.75;7.55;;;11.40;79.60;;;;;;5133416;27;20046;-61
2021/11/25 09:31:30;;;;;;;14.95;9.15;;;11.40;79.60;;;;;;5133056;27;20502;-61
2021/11/25 09:33:56;;;;;;;11.18;7.07;;;11.40;79.60;;;;;;5132788;27;20047;-64
2021/11/25 09:36:24;;;;;;;12.23;7.45;;;11.50;79.60;;;;;;5115057;27;20475;-54
2021/11/25 09:38:50;;;;;;;12.00;7.82;;;11.30;79.50;;;;;;5132858;27;20039;-62
2021/11/25 09:41:16;;;;;;;11.38;7.97;;;11.40;79.50;;;;;;5118307;27;20100;-63
2021/11/25 09:43:43;;;;;;;9.95;7.22;;;11.50;79.60;;;;;;5132652;27;20141;-64
2021/11/25 09:46:10;;;;;;;12.45;8.02;;;11.40;79.50;;;;;;5132287;27;20047;-64
2021/11/25 09:48:37;;;;;;;10.60;7.40;;;11.40;79.60;;;;;;5131369;27;20118;-60
2021/11/25 09:51:05;;;;;;;12.63;8.27;;;11.40;79.60;;;;;;5101814;28;20082;-64
2021/11/25 09:53:31;;;;;;;12.95;8.32;;;11.40;79.50;;;;;;5111202;28;20051;-56
2021/11/25 09:55:59;;;;;;;11.18;7.75;;;11.50;79.60;;;;;;5131373;28;20054;-63
2021/11/25 09:58:27;;;;;;;10.88;7.13;;;11.40;79.60;;;;;;5132588;28;20047;-57
2021/11/25 10:00:57;;;;;;;11.40;7.85;;;11.40;79.60;;;;;;5129022;27;20428;-60
2021/11/25 10:03:23;;;;;;;11.57;7.07;;;11.40;79.60;;;;;;5131982;27;20043;-56
2021/11/25 10:05:54;;;;;;;10.63;6.97;;;11.40;79.60;;;;;;5133536;27;20054;-56
2021/11/25 10:08:33;;;;;;;10.43;7.28;;;11.40;79.60;;;;;;5138766;27;20072;-57
2021/11/25 10:11:23;;;;;;;11.43;7.43;;;11.40;80.20;;;;;;5097385;28;20491;-62
2021/11/25 10:13:57;;;;;;;9.63;6.95;;;11.40;79.60;;;;;;5093656;28;20126;-53
2021/11/25 10:16:28;;;;;;;10.50;7.00;;;11.40;79.60;;;;;;5110495;28;20153;-59
2021/11/25 10:18:58;;;;;;;10.82;7.80;;;11.40;79.60;;;;;;5131519;27;20039;-63
2021/11/25 10:21:27;;;;;;;9.90;6.90;;;11.40;79.60;;;;;;5118256;27;20127;-60
2021/11/25 10:23:55;;;;;;;11.20;7.60;;;11.40;79.60;;;;;;5111750;28;20047;-64
2021/11/25 10:26:27;;;;;;;9.85;6.40;;;11.40;79.60;;;;;;5111570;28;20087;-58
2021/11/25 10:28:54;;;;;;;9.40;6.63;;;11.40;79.60;;;;;;5111778;28;20096;-56
2021/11/25 10:31:24;;;;;;;9.52;6.53;;;11.40;79.60;;;;;;5112529;28;20043;-56
2021/11/25 10:34:04;;;;;;;11.05;6.80;;;11.40;79.60;;;;;;5111345;28;20512;-56
2021/11/25 10:36:40;;;;;;;8.40;6.53;;;11.40;79.60;;;;;;5090025;28;20112;-59
2021/11/25 10:41:49;;;;;;;9.43;6.57;;;11.40;79.60;;;;;;5116213;28;20086;-56
2021/11/25 10:44:25;;;;;;;9.75;6.40;;;11.40;79.70;;;;;;5109630;28;20083;-55
2021/11/25 10:46:56;;;;;;;9.50;6.30;;;11.40;79.60;;;;;;5128138;28;20091;-54
2021/11/25 10:49:35;;;;;;;8.70;5.85;;;11.50;79.60;;;;;;5127643;28;20518;-55
2021/11/25 10:52:01;;;;;;;10.40;6.57;;;11.40;79.60;;;;;;5107211;28;20078;-57
2021/11/25 10:54:27;;;;;;;8.48;6.05;;;11.50;79.60;;;;;;5129178;27;20050;-57
2021/11/25 10:56:57;;;;;;;8.55;6.20;;;11.40;79.60;;;;;;5148840;27;20134;-55
2021/11/25 10:59:42;;;;;;;11.15;6.40;;;11.40;79.60;;;;;;5148628;27;20047;-57
2021/11/25 11:02:31;;;;;;;7.63;5.63;;;11.40;79.50;;;;;;5145095;27;20043;-57
2021/11/25 11:05:02;;;;;;;8.32;5.53;;;11.50;79.60;;;;;;5108488;28;20036;-55
2021/11/25 11:07:30;;;;;;;9.18;6.53;;;11.50;79.60;;;;;;5092278;28;20071;-56
2021/11/25 11:09:57;;;;;;;9.23;5.90;;;11.50;79.60;;;;;;5092427;28;20061;-55
2021/11/25 11:12:43;;;;;;;8.52;5.65;;;11.30;79.50;;;;;;5075871;28;20136;-58
2021/11/25 11:15:34;;;;;;;;;;;11.40;79.60;;;;;;5128469;27;20039;-57
2021/11/25 11:20:48;;;;;;;7.53;5.25;;;11.40;79.60;;;;;;5121487;27;20065;-57
2021/11/25 11:23:18;;;;;;;8.05;6.05;;;11.40;79.70;;;;;;5130647;27;20070;-56
2021/11/25 11:25:45;;;;;;;8.20;4.78;;;11.50;79.60;;;;;;5129979;27;20043;-57
2021/11/25 11:28:12;;;;;;;8.18;5.50;;;11.40;80.20;;;;;;5130845;27;20051;-57
2021/11/25 11:30:38;;;;;;;7.30;5.00;;;11.40;79.60;;;;;;5130822;27;20169;-56
2021/11/25 11:33:07;;;;;;;9.32;5.47;;;11.40;79.60;;;;;;5130721;27;20043;-55
2021/11/25 11:35:34;;;;;;;8.55;5.63;;;11.40;79.50;;;;;;5125498;27;20204;-55
2021/11/25 11:38:02;;;;;;;7.88;5.45;;;11.60;79.60;;;;;;5127951;27;20486;-57
2021/11/25 11:40:29;;;;;;;8.32;5.00;;;11.50;80.30;;;;;;5130836;27;20039;-56
2021/11/25 11:42:59;;;;;;;7.07;5.00;;;11.60;79.60;;;;;;5130605;27;20156;-58
2021/11/25 11:45:32;;;;;;;7.68;5.30;;;11.50;79.60;;;;;;5129504;27;20031;-54
2021/11/25 11:48:00;;;;;;;6.68;4.68;;;11.50;79.60;;;;;;5112578;27;20050;-53
2021/11/25 11:50:34;;;;;;;7.25;4.82;;;11.50;79.60;;;;;;5133293;27;20051;-55
2021/11/25 11:53:08;;;;;;;7.20;5.03;;;11.50;79.60;;;;;;5130771;27;20122;-55
2021/11/25 11:55:41;;;;;;;6.50;4.57;;;11.50;79.50;;;;;;5129423;27;20047;-59
2021/11/25 11:58:27;;;;;;;6.05;4.45;;;11.40;79.50;;;;;;5129434;27;20066;-54
2021/11/25 12:00:56;;;;;;;7.13;4.85;;;11.50;79.50;;;;;;5131213;27;20097;-55
2021/11/25 12:03:31;;;;;;;7.40;4.72;;;11.50;79.50;;;;;;5130330;27;20502;-56
2021/11/25 12:05:57;;;;;;;;;;;11.50;79.50;;;;;;5111578;27;20050;-63
2021/11/25 12:08:28;;;;;;;;;;;11.50;79.50;;;;;;5111819;27;19927;-65
2021/11/25 12:10:53;;;;;;;6.75;4.80;;;11.50;79.50;;;;;;5092446;28;20429;-66
2021/11/25 12:13:19;;;;;;;6.22;4.45;;;11.40;79.60;;;;;;5091522;28;20059;-63
2021/11/25 12:15:45;;;;;;;6.55;4.40;;;11.40;79.50;;;;;;5110226;28;20047;-64
2021/11/25 12:18:32;;;;;;;5.78;3.88;;;11.50;79.60;;;;;;5092631;28;20072;-66
2021/11/25 12:20:59;;;;;;;6.95;4.88;;;11.50;79.50;;;;;;5095705;28;20100;-66
2021/11/25 12:23:34;;;;;;;6.20;4.03;;;11.50;79.60;;;;;;5095128;28;20048;-65
2021/11/25 12:26:01;;;;;;;6.28;4.20;;;11.50;79.50;;;;;;5114182;28;20147;-63
2021/11/25 12:28:29;;;;;;;6.43;4.50;;;11.50;79.60;;;;;;5114704;27;20100;-62
2021/11/25 12:33:50;;;;;;;5.45;3.45;;;11.50;79.50;;;;;;5137783;27;20058;-61
2021/11/25 12:36:37;;;;;;;6.38;4.03;;;11.50;79.50;;;;;;5155079;27;20084;-65
2021/11/25 12:39:24;;;;;;;6.05;4.25;;;11.60;79.50;;;;;;5130490;27;20057;-65
2021/11/25 12:41:49;;;;;;;5.70;3.90;;;11.50;79.50;;;;;;5097206;28;20131;-64
2021/11/25 12:44:15;;;;;;;6.30;4.05;;;11.50;79.50;;;;;;5113361;28;20078;-64
2021/11/25 12:46:40;;;;;;;5.93;3.80;;;11.50;79.60;;;;;;5112873;27;20127;-62
2021/11/25 12:49:06;;;;;;;5.63;4.15;;;11.50;79.50;;;;;;5128751;27;20468;-64
2021/11/25 12:51:33;;;;;;;5.20;3.65;;;11.60;79.60;;;;;;5113176;27;20043;-60
2021/11/25 12:54:01;;;;;;;5.70;3.83;;;11.50;79.50;;;;;;5132154;27;20078;-59
2021/11/25 12:56:32;;;;;;;4.68;3.30;;;11.60;79.50;;;;;;5154142;27;20042;-66
2021/11/25 12:59:05;;;;;;;4.95;3.53;;;11.50;79.50;;;;;;5148776;27;20043;-59
2021/11/25 13:01:39;;;;;;;5.35;3.50;;;11.50;79.50;;;;;;5094414;28;20048;-56